Главная страница
METAR-TAF:

METAR-TAF

Аэропорты :

Яунде, Камерун

широта: 03-50N, долгота: 011-31E, высота над уровнем моря: 751 м

Текущие метеонаблюдения

Эта сводка был подготовлена 37 минут назад, в 22:00 UTC
Температура 19°C
Влажность 100%
Давление 1014 hPa
Видимость: 6000 м
небольшая облачность на высоте 600 фута

METAR: FKYS 222200Z /////KT 6000 FEW006 19/19 Q1014 TEMPO 4000 BR

Время: 23:37 (22:37 UTC)

Прогноз

Эта сводка был подготовлена 5 часа и 37 минут назад, в 17:00 UTC
Прогноз действительный с 22-го 18 UTC до 23-го 18 UTC
Ветер 5 Узел переменных направлений
Видимость: 6000 м
Рассеянная облачность на высоте 1600 фута
небольшая облачность на высоте 2000 фута, Кучево-дождевые.
гроза
изменения
С 22-го 20 UTC до 22-го 22 UTC
Рассеянная облачность на высоте 600 фута
изменения
С 23-го 08 UTC до 23-го 10 UTC
Рассеянная облачность на высоте 1600 фута

TAF: FKYS 221700Z 2218/2318 VRB05KT 6000 TS BKN016 FEW020CB BECMG 2220/2222 NSW BKN006 BECMG 2308/2310 BKN016

Метеонаблюдения и прогнозы для более 4000 аэропортов (сводки METAR и TAF).

Имеющиеся станции представлены на карте желтыми и красными точками.

Чтобы увидеть название станции, наведите на нее мышь.

Затем щелкните, чтобы увидеть метеонаблюдения и метеопрогнозы.

Управление картой: чтобы увеличить масштаб, щелкните зеленые кнопки с черным крестиком; чтобы уменьшить масштаб, щелкните зеленую кнопку с тире; для просмотра соседних карт щелкайте зеленые стрелки.


METAR-TAF: